Terminal Aerodrome Forecast
Issued by NWS

Home | Current Version | Previous Version | Text Only | Print | Product List | Glossary On
Versions: 1 2 3 4 5 6 7 8 9 10 11 12 13 14 15 16 17 18
675
FTUS44 KLZK 300520
TAFHOT
TAF
KHOT 300520Z 3006/3106 VRB03KT P6SM VCSH SCT050 BKN110
      TEMPO 3009/3013 4SM BR
     FM301400 VRB05KT P6SM VCSH SCT025 BKN050 BKN100
     FM301800 25006KT P6SM VCTS SCT040CB BKN250=

USA.gov is the U.S. government's official web portal to all federal, state and local government web resources and services.